KATY/ATY METAR and TAF weather

Enter ICAO airport designator
Station Type Date Time Source
KATY METAR 2020/09/21 04:53 UTC NOAA

KATY 210453Z AUTO 15006KT 7SM CLR 17/13 A3002 RMK AO2 SLP163 T01670133


Station Type Date Time Source
KATY Decoded METAR 2020/09/21 04:53 UTC NOAA

WATERTOWN MUNICIPAL AIRPORT, SD, United States (KATY) 44-54N 097-09W 532M
Sep 21, 2020 - 12:53 AM EDT / 2020.09.21 0453 UTC
Wind: from the SSE (150 degrees) at 7 MPH (6 KT):0
Visibility: 7 mile(s):0
Sky conditions: clear
Temperature: 62.1 F (16.7 C)
Dew Point: 55.9 F (13.3 C)
Relative Humidity: 80%
Pressure (altimeter): 30.02 in. Hg (1016 hPa)
ob: KATY 210453Z AUTO 15006KT 7SM CLR 17/13 A3002 RMK AO2 SLP163 T01670133
cycle: 5

Station Type Date Time Source
KATY TAF 2020/09/21 06:27 UTC NOAA

TAF KATY 210524Z 2106/2206 17010KT P6SM SKC
FM211600 26005KT P6SM SKC
FM220200 VRB04KT P6SM SKC

Example: see airport list